createdAt,value
2019-01-03T00:07:28.281Z,61.37
2019-01-03T00:22:45.180Z,61.07
2019-01-03T00:37:56.085Z,61.60
2019-01-03T00:53:08.222Z,58.07
2019-01-03T01:08:22.254Z,72.96
2019-01-03T01:23:40.228Z,77.02
2019-01-03T01:38:57.163Z,78.40
2019-01-03T01:54:21.215Z,78.09
2019-01-03T02:09:37.599Z,77.47
2019-01-03T02:25:03.172Z,72.28
2019-01-03T02:40:13.518Z,71.93
2019-01-03T02:55:36.042Z,67.23
2019-01-03T03:11:04.299Z,67.83
2019-01-03T03:26:12.407Z,66.71
2019-01-03T03:41:20.293Z,62.54
2019-01-03T03:56:27.959Z,75.58
2019-01-03T04:11:41.472Z,71.26
2019-01-03T04:26:49.066Z,76.66
2019-01-03T04:41:57.064Z,73.21
2019-01-03T04:57:20.614Z,69.78
2019-01-03T05:12:44.939Z,76.37
2019-01-03T05:27:51.533Z,73.98
2019-01-03T05:43:11.326Z,76.89
2019-01-03T05:58:25.035Z,70.83
2019-01-03T06:13:42.362Z,68.17
2019-01-03T06:28:53.178Z,69.89
2019-01-03T06:44:16.072Z,71.42
2019-01-03T06:59:23.679Z,75.34
2019-01-03T07:14:47.745Z,72.62
2019-01-03T07:30:10.667Z,61.36
2019-01-03T07:45:34.540Z,55.80
2019-01-03T08:00:45.360Z,50.64
2019-01-03T08:15:56.030Z,50.00
2019-01-03T08:31:03.639Z,46.83
2019-01-03T08:46:11.381Z,48.73
2019-01-03T09:01:19.063Z,52.60
2019-01-03T09:16:44.563Z,48.33
2019-01-03T09:32:07.493Z,54.68
2019-01-03T09:47:13.439Z,55.14
2019-01-03T10:02:19.371Z,57.02
2019-01-03T10:17:25.417Z,52.18
2019-01-03T10:32:31.674Z,53.11
2019-01-03T10:47:37.598Z,59.19
2019-01-03T11:02:43.537Z,49.39
2019-01-03T11:17:49.341Z,49.49
2019-01-03T11:32:55.726Z,47.35
2019-01-03T11:48:01.778Z,51.18
2019-01-03T12:03:07.700Z,52.80
2019-01-03T12:18:13.484Z,57.60
2019-01-03T12:33:19.486Z,59.75
2019-01-03T12:48:25.444Z,55.78
2019-01-03T13:03:35.355Z,54.58
2019-01-03T13:18:41.147Z,61.34
2019-01-03T13:33:47.207Z,60.18
2019-01-03T13:48:53.146Z,56.28
2019-01-03T14:03:59.251Z,57.65
2019-01-03T14:19:06.492Z,58.33
2019-01-03T14:34:12.815Z,57.98
2019-01-03T14:49:18.973Z,54.22
2019-01-03T15:04:25.109Z,60.14
2019-01-03T15:19:31.108Z,55.64
2019-01-03T15:34:36.892Z,58.00
2019-01-03T15:49:42.804Z,60.93
2019-01-03T16:04:48.967Z,56.28
2019-01-03T16:19:55.057Z,52.16
2019-01-03T16:35:01.569Z,59.41
2019-01-03T16:50:14.774Z,60.77
2019-01-03T17:05:20.782Z,56.72
2019-01-03T17:20:27.074Z,59.68
2019-01-03T17:35:36.356Z,62.42
2019-01-03T17:50:42.547Z,59.83
2019-01-03T18:05:50.595Z,62.29
2019-01-03T18:20:56.851Z,60.25
2019-01-03T18:36:03.014Z,52.98
2019-01-03T18:51:08.988Z,56.66
2019-01-03T19:06:15.354Z,56.78
2019-01-03T19:21:21.642Z,53.12
2019-01-03T19:36:28.299Z,53.15
2019-01-03T19:51:34.166Z,53.42
2019-01-03T20:06:39.966Z,52.99
2019-01-03T20:21:46.250Z,52.49
2019-01-03T20:36:52.781Z,53.29
2019-01-03T20:51:59.473Z,51.79
2019-01-03T21:07:06.400Z,50.50
2019-01-03T21:22:12.280Z,51.95
2019-01-03T21:37:18.094Z,51.66
2019-01-03T21:52:24.185Z,50.89
2019-01-03T22:07:30.123Z,53.19
2019-01-03T22:22:36.274Z,52.48
2019-01-03T22:37:42.638Z,49.57
2019-01-03T22:52:49.268Z,49.99
2019-01-03T23:07:55.682Z,52.58
2019-01-03T23:23:01.966Z,54.17
2019-01-03T23:38:08.332Z,55.70
2019-01-03T23:53:14.559Z,56.27
